Roosevelt Corner, California
Current Conditions -  °F | °C
As of 2:58 AM on Friday 31 Oct 2014 (Local Time) from KEDW Reporting Station
Clear Clear  
Wind Chill: 57°   Ceiling: Unl
Heat Index: 57°   Visibility: 10mi
Dew Point: 38°   Wind: 9mph
Humidity: 49%   Direction: 200°SSW
Pressure: 29.95"   Gusts: NA
Location:  34.7192°N, 117.884°W
Report Text: KEDW 310958Z AUTO 20008KT 10SM CLR 14/04 A2995 RMK AO2 SLP126 T01410036
Loading
Personal Weather Stations






























Interactive Weather Map
Tropical Storm Tracking
New forecast layout! Learn more

10-Day Weather Forecast

Advertisements
Track Severe Weather on mobile